Perrysburg, Ohio
Current Conditions -  °F | °C
As of 1:53 AM on Wednesday 22 Oct 2014 (Local Time) from KTDZ Reporting Station
Overcast Overcast  
Wind Chill:   Ceiling: 1700
Heat Index:   Visibility: 10mi
Dew Point:   Wind: 9mph
Humidity: 71%   Direction: 350°N
Pressure: 30.2"   Gusts: NA
Location:  41.56°N, 83.63°W
Report Text: KTDZ 220553Z AUTO 35008KT 10SM OVC017 08/03 A3020 RMK AO2 SLP230 T00780028 10078 20078 58002 TSNO
Loading
Personal Weather Stations






























Interactive Weather Map
Tropical Storm Tracking
New forecast layout! Learn more

10-Day Weather Forecast

Advertisements
Track Severe Weather on mobile